createdAt,value
2017-05-23T00:00:45.738Z,45.68
2017-05-23T00:01:45.769Z,45.59
2017-05-23T00:02:45.795Z,45.68
2017-05-23T00:03:45.822Z,45.59
2017-05-23T00:04:45.909Z,45.68
2017-05-23T00:05:45.883Z,45.4
2017-05-23T00:06:45.912Z,45.4
2017-05-23T00:07:45.942Z,45.49
2017-05-23T00:08:45.970Z,45.49
2017-05-23T00:09:46.002Z,45.3
2017-05-23T00:10:46.023Z,45.1
2017-05-23T00:11:46.051Z,45.4
2017-05-23T00:12:46.085Z,45.68
2017-05-23T00:13:46.115Z,45.3
2017-05-23T00:14:46.141Z,45.3
2017-05-23T00:15:45.859Z,45.1
2017-05-23T00:16:46.203Z,45.2
2017-05-23T00:17:45.912Z,45.1
2017-05-23T00:18:46.258Z,45.49
2017-05-23T00:19:46.287Z,45.49
2017-05-23T00:20:45.998Z,45.4
2017-05-23T00:21:46.027Z,45.4
2017-05-23T00:22:46.368Z,45.4
2017-05-23T00:23:46.087Z,45.3
2017-05-23T00:24:46.115Z,45.49
2017-05-23T00:25:46.454Z,45.49
2017-05-23T00:26:46.481Z,45.3
2017-05-23T00:27:46.509Z,45.3
2017-05-23T00:28:46.546Z,45.3
2017-05-23T00:29:46.574Z,45.59
2017-05-23T00:30:46.602Z,45.3
2017-05-23T00:31:46.627Z,45.4
2017-05-23T00:32:46.335Z,45.3
2017-05-23T00:33:46.372Z,45.3
2017-05-23T00:34:46.728Z,45.3
2017-05-23T00:35:46.741Z,45.3
2017-05-23T00:36:46.823Z,45.4
2017-05-23T00:37:46.488Z,45.3
2017-05-23T00:38:46.517Z,45.78
2017-05-23T00:39:46.856Z,45.68
2017-05-23T00:40:46.885Z,45.49
2017-05-23T00:41:46.910Z,46.08
2017-05-23T00:42:46.944Z,45.78
2017-05-23T00:43:46.974Z,46.17
2017-05-23T00:44:46.997Z,46.17
2017-05-23T00:45:47.025Z,45.88
2017-05-23T00:46:47.058Z,45.68
2017-05-23T00:47:47.088Z,46.17
2017-05-23T00:48:47.117Z,46.08
2017-05-23T00:49:47.142Z,45.68
2017-05-23T00:50:47.169Z,45.78
2017-05-23T00:51:47.190Z,45.68
2017-05-23T00:52:47.231Z,46.26
2017-05-23T00:53:47.257Z,46.17
2017-05-23T00:54:46.969Z,46.08
2017-05-23T00:55:47.002Z,46.17
2017-05-23T00:56:47.346Z,45.98
2017-05-23T00:57:47.373Z,45.88
2017-05-23T00:58:47.406Z,45.88
2017-05-23T00:59:47.431Z,45.98
2017-05-23T01:00:47.457Z,45.98
2017-05-23T01:01:47.175Z,45.98
2017-05-23T01:02:47.510Z,45.68
2017-05-23T01:03:47.543Z,45.78
2017-05-23T01:04:47.573Z,45.98
2017-05-23T01:05:47.287Z,45.98
2017-05-23T01:06:47.630Z,46.08
2017-05-23T01:07:47.660Z,45.78
2017-05-23T01:08:47.687Z,45.78
2017-05-23T01:09:47.716Z,45.78
2017-05-23T01:10:47.741Z,45.98
2017-05-23T01:11:47.479Z,45.98
2017-05-23T01:12:47.804Z,45.88
2017-05-23T01:13:47.524Z,45.68
2017-05-23T01:14:47.544Z,45.68
2017-05-23T01:15:47.885Z,45.68
2017-05-23T01:16:47.601Z,46.36
2017-05-23T01:17:47.631Z,45.49
2017-05-23T01:18:47.972Z,45.88
2017-05-23T01:19:48.002Z,45.49
2017-05-23T01:20:48.024Z,46.08
2017-05-23T01:21:48.061Z,46.34
2017-05-23T01:22:48.088Z,46.34
2017-05-23T01:23:48.117Z,46.15
2017-05-23T01:24:47.833Z,46.36
2017-05-23T01:25:48.173Z,46.34
2017-05-23T01:26:48.201Z,46.17
2017-05-23T01:27:48.459Z,46.26
2017-05-23T01:28:48.262Z,46.15
2017-05-23T01:29:48.301Z,46.36
2017-05-23T01:30:48.316Z,45.88
2017-05-23T01:31:48.350Z,45.86
2017-05-23T01:32:48.575Z,46.15
2017-05-23T01:33:48.087Z,45.95
2017-05-23T01:34:48.428Z,46.26
2017-05-23T01:35:48.456Z,46.05
2017-05-23T01:36:48.487Z,46.36
2017-05-23T01:37:48.771Z,46.15
2017-05-23T01:38:48.544Z,45.95
2017-05-23T01:39:48.572Z,45.98
2017-05-23T01:40:48.292Z,46.15
2017-05-23T01:41:48.636Z,46.15
2017-05-23T01:42:48.943Z,45.95
2017-05-23T01:43:48.687Z,45.95
2017-05-23T01:44:48.712Z,46.05
2017-05-23T01:45:48.740Z,45.86
2017-05-23T01:46:48.457Z,46.25
2017-05-23T01:47:49.001Z,46.25
2017-05-23T01:48:48.827Z,46.26
2017-05-23T01:49:48.856Z,46.15
2017-05-23T01:50:48.885Z,46.25
2017-05-23T01:51:48.914Z,46.15
2017-05-23T01:52:49.134Z,46.05
2017-05-23T01:53:48.967Z,46.44
2017-05-23T01:54:49.001Z,46.44
2017-05-23T01:55:49.029Z,46.15
2017-05-23T01:56:48.745Z,46.44
2017-05-23T01:57:49.026Z,45.95
2017-05-23T01:58:49.110Z,46.53
2017-05-23T01:59:49.136Z,46.44
2017-05-23T02:00:48.856Z,46.34
2017-05-23T02:01:49.197Z,46.44
2017-05-23T02:02:49.423Z,46.44
2017-05-23T02:03:49.258Z,46.44
2017-05-23T02:04:49.283Z,46.44
2017-05-23T02:05:49.317Z,46.34
2017-05-23T02:06:49.341Z,46.44
2017-05-23T02:07:49.062Z,46.34
2017-05-23T02:08:49.399Z,46.34
2017-05-23T02:09:49.423Z,46.73
2017-05-23T02:10:49.449Z,46.63
2017-05-23T02:11:49.477Z,46.73
2017-05-23T02:12:49.510Z,46.44
2017-05-23T02:13:49.543Z,46.53
2017-05-23T02:14:49.568Z,46.44
2017-05-23T02:15:49.614Z,46.53
2017-05-23T02:16:49.625Z,46.92
2017-05-23T02:17:49.651Z,46.53
2017-05-23T02:18:49.687Z,46.83
2017-05-23T02:19:49.711Z,46.44
2017-05-23T02:20:49.733Z,46.92
2017-05-23T02:21:49.764Z,46.92
2017-05-23T02:22:49.784Z,46.92
2017-05-23T02:23:49.826Z,46.53
2017-05-23T02:24:49.851Z,46.53
2017-05-23T02:25:49.879Z,46.83
2017-05-23T02:26:49.601Z,46.63
2017-05-23T02:27:49.929Z,46.63
2017-05-23T02:28:49.966Z,46.63
2017-05-23T02:29:49.996Z,46.63
2017-05-23T02:30:50.024Z,46.44
2017-05-23T02:31:50.048Z,46.53
2017-05-23T02:32:50.073Z,46.44
2017-05-23T02:33:50.110Z,46.53
2017-05-23T02:34:49.822Z,46.83
2017-05-23T02:35:50.163Z,46.83
2017-05-23T02:36:50.193Z,46.73
2017-05-23T02:37:49.908Z,46.73
2017-05-23T02:38:50.250Z,46.53
2017-05-23T02:39:50.278Z,46.53
2017-05-23T02:40:50.307Z,46.53
2017-05-23T02:41:50.332Z,46.83
2017-05-23T02:42:50.360Z,46.63
2017-05-23T02:43:50.390Z,46.63
2017-05-23T02:44:50.107Z,47.11
2017-05-23T02:45:50.455Z,47.11
2017-05-23T02:46:50.160Z,46.73
2017-05-23T02:47:50.505Z,46.83
2017-05-23T02:48:50.222Z,46.63
2017-05-23T02:49:50.250Z,46.53
2017-05-23T02:50:50.268Z,46.83
2017-05-23T02:51:50.611Z,46.73
2017-05-23T02:52:50.641Z,46.44
2017-05-23T02:53:50.365Z,46.63
2017-05-23T02:54:50.390Z,46.92
2017-05-23T02:55:50.421Z,46.73
2017-05-23T02:56:50.757Z,46.83
2017-05-23T02:57:50.785Z,46.63
2017-05-23T02:58:50.814Z,47.02
2017-05-23T02:59:50.841Z,46.92
2017-05-23T03:00:50.870Z,46.92
2017-05-23T03:01:50.896Z,47.21
2017-05-23T03:02:50.929Z,47.02
2017-05-23T03:03:50.957Z,47.5
2017-05-23T03:04:50.987Z,47.5
2017-05-23T03:05:50.698Z,47.21
2017-05-23T03:06:51.040Z,47.31
2017-05-23T03:07:51.069Z,47.41
2017-05-23T03:08:51.093Z,47.21
2017-05-23T03:09:51.126Z,47.5
2017-05-23T03:10:51.151Z,47.5
2017-05-23T03:11:51.180Z,47.5
2017-05-23T03:12:50.918Z,47.21
2017-05-23T03:13:50.924Z,47.11
2017-05-23T03:14:50.954Z,47.21
2017-05-23T03:15:50.982Z,47.21
2017-05-23T03:16:51.324Z,47.21
2017-05-23T03:17:51.043Z,47.31
2017-05-23T03:18:51.380Z,47.31
2017-05-23T03:19:51.407Z,47.11
2017-05-23T03:20:51.434Z,47.41
2017-05-23T03:21:51.467Z,47.21
2017-05-23T03:22:51.493Z,47.21
2017-05-23T03:23:51.526Z,47.21
2017-05-23T03:24:51.548Z,46.92
2017-05-23T03:25:51.268Z,47.31
2017-05-23T03:26:51.296Z,47.21
2017-05-23T03:27:51.633Z,47.21
2017-05-23T03:28:51.350Z,47.21
2017-05-23T03:29:51.689Z,47.21
2017-05-23T03:30:51.719Z,47.21
2017-05-23T03:31:51.435Z,47.41
2017-05-23T03:32:51.780Z,47.21
2017-05-23T03:33:51.800Z,47.02
2017-05-23T03:34:51.829Z,47.21
2017-05-23T03:35:51.853Z,47.5
2017-05-23T03:36:51.888Z,47.21
2017-05-23T03:37:51.612Z,47.11
2017-05-23T03:38:51.943Z,47.11
2017-05-23T03:39:51.655Z,47.31
2017-05-23T03:40:51.686Z,47.21
2017-05-23T03:41:52.027Z,47.5
2017-05-23T03:42:52.056Z,47.41
2017-05-23T03:43:52.084Z,47.21
2017-05-23T03:44:51.802Z,46.92
2017-05-23T03:45:52.139Z,47.11
2017-05-23T03:46:52.171Z,47.11
2017-05-23T03:47:52.202Z,47.21
2017-05-23T03:48:52.233Z,47.21
2017-05-23T03:49:52.255Z,47.31
2017-05-23T03:50:52.281Z,47.11
2017-05-23T03:51:52.310Z,47.21
2017-05-23T03:52:52.348Z,47.41
2017-05-23T03:53:52.366Z,47.21
2017-05-23T03:54:52.398Z,47.41
2017-05-23T03:55:52.420Z,47.21
2017-05-23T03:56:52.451Z,47.21
2017-05-23T03:57:52.484Z,47.21
2017-05-23T03:58:52.502Z,47.21
2017-05-23T03:59:52.533Z,47.41
2017-05-23T04:00:52.561Z,47.21
2017-05-23T04:01:52.591Z,47.11
2017-05-23T04:02:52.619Z,47.21
2017-05-23T04:03:52.341Z,47.21
2017-05-23T04:04:52.671Z,47.11
2017-05-23T04:05:52.704Z,47.21
2017-05-23T04:06:52.726Z,47.21
2017-05-23T04:07:52.758Z,46.92
2017-05-23T04:08:52.475Z,47.31
2017-05-23T04:09:52.816Z,47.21
2017-05-23T04:10:52.845Z,47.02
2017-05-23T04:11:52.875Z,46.92
2017-05-23T04:12:52.590Z,47.21
2017-05-23T04:13:52.931Z,47.02
2017-05-23T04:14:52.638Z,47.21
2017-05-23T04:15:52.986Z,47.5
2017-05-23T04:16:52.698Z,47.5
2017-05-23T04:17:53.043Z,47.31
2017-05-23T04:18:52.754Z,47.31
2017-05-23T04:19:52.784Z,47.5
2017-05-23T04:20:52.817Z,47.11
2017-05-23T04:21:53.155Z,47.31
2017-05-23T04:22:53.183Z,47.41
2017-05-23T04:23:53.215Z,47.11
2017-05-23T04:24:53.242Z,47.41
2017-05-23T04:25:53.268Z,47.21
2017-05-23T04:26:53.294Z,47.31
2017-05-23T04:27:53.331Z,47.21
2017-05-23T04:28:53.352Z,47.11
2017-05-23T04:29:53.381Z,47.11
2017-05-23T04:30:53.411Z,47.11
2017-05-23T04:31:53.126Z,47.11
2017-05-23T04:32:53.155Z,47.21
2017-05-23T04:33:53.494Z,47.11
2017-05-23T04:34:53.521Z,47.21
2017-05-23T04:35:53.234Z,47.31
2017-05-23T04:36:53.578Z,47.21
2017-05-23T04:37:53.294Z,47.21
2017-05-23T04:38:53.632Z,47.11
2017-05-23T04:39:53.660Z,47.21
2017-05-23T04:40:53.690Z,47.21
2017-05-23T04:41:53.716Z,47.21
2017-05-23T04:42:53.742Z,47.31
2017-05-23T04:43:53.771Z,47.11
2017-05-23T04:44:53.796Z,47.21
2017-05-23T04:45:53.833Z,47.31
2017-05-23T04:46:53.543Z,47.21
2017-05-23T04:47:53.886Z,47.41
2017-05-23T04:48:53.598Z,47.21
2017-05-23T04:49:53.940Z,47.31
2017-05-23T04:50:53.660Z,47.11
2017-05-23T04:51:53.689Z,47.31
2017-05-23T04:52:54.030Z,47.31
2017-05-23T04:53:54.055Z,47.6
2017-05-23T04:54:54.084Z,47.41
2017-05-23T04:55:54.108Z,47.31
2017-05-23T04:56:54.137Z,47.21
2017-05-23T04:57:54.166Z,47.21
2017-05-23T04:58:53.879Z,47.21
2017-05-23T04:59:54.231Z,47.31
2017-05-23T05:00:53.938Z,47.31
2017-05-23T05:01:54.281Z,47.41
2017-05-23T05:02:53.998Z,47.5
2017-05-23T05:03:54.023Z,47.41
2017-05-23T05:04:54.368Z,47.21
2017-05-23T05:05:54.393Z,47.41
2017-05-23T05:06:54.423Z,47.31
2017-05-23T05:07:54.450Z,47.21
2017-05-23T05:08:54.479Z,47.41
2017-05-23T05:09:54.511Z,47.5
2017-05-23T05:10:54.532Z,46.92
2017-05-23T05:11:54.566Z,47.21
2017-05-23T05:12:54.595Z,47.41
2017-05-23T05:13:54.294Z,47.21
2017-05-23T05:14:54.647Z,47.21
2017-05-23T05:15:54.359Z,47.11
2017-05-23T05:16:54.701Z,47.31
2017-05-23T05:17:54.413Z,47.21
2017-05-23T05:18:54.758Z,47.21
2017-05-23T05:19:54.788Z,47.5
2017-05-23T05:20:54.875Z,47.21
2017-05-23T05:21:54.845Z,47.41
2017-05-23T05:22:54.870Z,47.5
2017-05-23T05:23:54.894Z,47.69
2017-05-23T05:24:54.617Z,47.21
2017-05-23T05:25:54.956Z,47.41
2017-05-23T05:26:54.983Z,47.31
2017-05-23T05:27:55.005Z,47.6
2017-05-23T05:28:55.038Z,47.41
2017-05-23T05:29:55.066Z,47.41
2017-05-23T05:30:55.095Z,47.11
2017-05-23T05:31:55.129Z,47.31
2017-05-23T05:32:55.149Z,47.02
2017-05-23T05:33:55.187Z,47.31
2017-05-23T05:34:54.892Z,47.6
2017-05-23T05:35:54.925Z,47.02
2017-05-23T05:36:54.952Z,46.92
2017-05-23T05:37:54.978Z,47.41
2017-05-23T05:38:55.517Z,47.31
2017-05-23T05:39:55.388Z,47.31
2017-05-23T05:40:55.059Z,47.5
2017-05-23T05:41:55.091Z,47.6
2017-05-23T05:42:55.116Z,47.31
2017-05-23T05:43:55.661Z,47.41
2017-05-23T05:44:55.490Z,47.21
2017-05-23T05:45:55.516Z,47.69
2017-05-23T05:46:55.545Z,47.21
2017-05-23T05:47:55.569Z,47.21
2017-05-23T05:48:55.801Z,47.11
2017-05-23T05:49:55.630Z,47.31
2017-05-23T05:50:55.343Z,47.31
2017-05-23T05:51:55.688Z,47.21
2017-05-23T05:52:55.713Z,47.21
2017-05-23T05:53:55.942Z,47.21
2017-05-23T05:54:55.770Z,46.92
2017-05-23T05:55:55.794Z,46.92
2017-05-23T05:56:55.828Z,46.92
2017-05-23T05:57:55.857Z,47.21
2017-05-23T05:58:55.769Z,47.21
2017-05-23T05:59:55.598Z,47.31
2017-05-23T06:00:55.935Z,47.11
2017-05-23T06:01:55.967Z,46.92
2017-05-23T06:02:55.684Z,46.83
2017-05-23T06:03:56.225Z,47.5
2017-05-23T06:04:55.742Z,47.11
2017-05-23T06:05:56.079Z,47.31
2017-05-23T06:06:56.107Z,47.02
2017-05-23T06:07:56.202Z,47.21
2017-05-23T06:08:56.364Z,47.11
2017-05-23T06:09:56.194Z,47.5
2017-05-23T06:10:56.223Z,46.73
2017-05-23T06:11:56.246Z,46.73
2017-05-23T06:12:55.964Z,47.21
2017-05-23T06:13:56.505Z,47.21
2017-05-23T06:14:56.022Z,47.21
2017-05-23T06:15:56.354Z,46.73
2017-05-23T06:16:56.383Z,47.5
2017-05-23T06:17:56.108Z,47.21
2017-05-23T06:18:56.649Z,47.41
2017-05-23T06:19:56.474Z,46.63
2017-05-23T06:20:56.503Z,47.21
2017-05-23T06:21:56.531Z,47.41
2017-05-23T06:22:56.560Z,47.02
2017-05-23T06:23:56.792Z,47.11
2017-05-23T06:24:56.305Z,47.41
2017-05-23T06:25:56.643Z,47.11
2017-05-23T06:26:56.672Z,47.31
2017-05-23T06:27:56.700Z,47.11
2017-05-23T06:28:56.932Z,47.41
2017-05-23T06:29:56.757Z,47.02
2017-05-23T06:30:56.786Z,47.31
2017-05-23T06:31:56.815Z,47.31
2017-05-23T06:32:56.840Z,47.69
2017-05-23T06:33:57.121Z,47.11
2017-05-23T06:34:56.898Z,46.73
2017-05-23T06:35:56.930Z,47.31
2017-05-23T06:36:56.635Z,47.11
2017-05-23T06:37:56.987Z,46.73
2017-05-23T06:38:57.212Z,47.02
2017-05-23T06:39:57.037Z,46.63
2017-05-23T06:40:57.066Z,46.63
2017-05-23T06:41:57.096Z,46.73
2017-05-23T06:42:57.123Z,46.83
2017-05-23T06:43:57.352Z,47.11
2017-05-23T06:44:57.190Z,46.63
2017-05-23T06:45:57.203Z,46.63
2017-05-23T06:46:57.238Z,46.63
2017-05-23T06:47:57.264Z,47.21
2017-05-23T06:48:57.227Z,46.73
2017-05-23T06:49:57.326Z,46.73
2017-05-23T06:50:57.345Z,46.63
2017-05-23T06:51:57.382Z,47.21
2017-05-23T06:52:57.407Z,46.92
2017-05-23T06:53:57.635Z,46.53
2017-05-23T06:54:57.459Z,46.92
2017-05-23T06:55:57.177Z,47.11
2017-05-23T06:56:57.206Z,46.63
2017-05-23T06:57:57.233Z,46.53
2017-05-23T06:58:57.824Z,46.53
2017-05-23T06:59:57.604Z,47.41
2017-05-23T07:00:57.636Z,46.73
2017-05-23T07:01:57.662Z,46.63
2017-05-23T07:02:57.376Z,46.53
2017-05-23T07:03:57.917Z,46.83
2017-05-23T07:04:57.744Z,47.41
2017-05-23T07:05:57.456Z,46.83
2017-05-23T07:06:57.802Z,46.53
2017-05-23T07:07:57.831Z,46.83
2017-05-23T07:08:58.054Z,46.63
2017-05-23T07:09:57.888Z,46.92
2017-05-23T07:10:57.917Z,46.63
2017-05-23T07:11:57.943Z,46.66
2017-05-23T07:12:57.967Z,46.73
2017-05-23T07:13:58.252Z,46.73
2017-05-23T07:14:58.028Z,46.56
2017-05-23T07:15:58.056Z,46.73
2017-05-23T07:16:58.086Z,46.46
2017-05-23T07:17:58.111Z,46.73
2017-05-23T07:18:58.032Z,46.75
2017-05-23T07:19:58.172Z,46.66
2017-05-23T07:20:57.881Z,46.83
2017-05-23T07:21:57.914Z,46.53
2017-05-23T07:22:58.256Z,46.66
2017-05-23T07:23:58.482Z,47.31
2017-05-23T07:24:58.316Z,47.14
2017-05-23T07:25:58.342Z,47.11
2017-05-23T07:26:58.059Z,46.94
2017-05-23T07:27:58.399Z,46.63
2017-05-23T07:28:58.679Z,46.75
2017-05-23T07:29:58.457Z,46.53
2017-05-23T07:30:58.168Z,46.56
2017-05-23T07:31:58.194Z,46.56
2017-05-23T07:32:58.538Z,46.56
2017-05-23T07:33:58.819Z,46.66
2017-05-23T07:34:58.596Z,46.66
2017-05-23T07:35:58.624Z,46.56
2017-05-23T07:36:58.654Z,46.26
2017-05-23T07:37:58.678Z,46.56
2017-05-23T07:38:58.911Z,46.46
2017-05-23T07:39:58.739Z,46.66
2017-05-23T07:40:58.768Z,46.75
2017-05-23T07:41:58.485Z,46.46
2017-05-23T07:42:58.826Z,46.56
2017-05-23T07:43:59.055Z,46.66
2017-05-23T07:44:58.884Z,46.66
2017-05-23T07:45:58.910Z,46.66
2017-05-23T07:46:58.941Z,46.66
2017-05-23T07:47:58.965Z,46.46
2017-05-23T07:48:58.882Z,46.26
2017-05-23T07:49:59.024Z,46.75
2017-05-23T07:50:59.052Z,46.46
2017-05-23T07:51:58.770Z,46.66
2017-05-23T07:52:59.111Z,46.08
2017-05-23T07:53:59.338Z,45.98
2017-05-23T07:54:58.856Z,45.98
2017-05-23T07:55:59.197Z,46.08
2017-05-23T07:56:59.220Z,45.98
2017-05-23T07:57:59.251Z,46.26
2017-05-23T07:58:59.478Z,46.17
2017-05-23T07:59:59.312Z,46.17
2017-05-23T08:00:59.341Z,46.17
2017-05-23T08:01:59.373Z,46.36
2017-05-23T08:02:59.394Z,46.36
2017-05-23T08:03:59.626Z,46.26
2017-05-23T08:04:59.455Z,46.26
2017-05-23T08:05:59.480Z,45.78
2017-05-23T08:06:59.510Z,46.17
2017-05-23T08:07:59.537Z,46.17
2017-05-23T08:08:59.766Z,46.26
2017-05-23T08:09:59.611Z,46.26
2017-05-23T08:10:59.624Z,46.17
2017-05-23T08:11:59.340Z,46.36
2017-05-23T08:12:59.673Z,45.88
2017-05-23T08:13:59.397Z,45.98
2017-05-23T08:14:59.428Z,46.26
2017-05-23T08:15:59.447Z,46.26
2017-05-23T08:16:59.796Z,46.17
2017-05-23T08:17:59.825Z,46.46
2017-05-23T08:18:59.851Z,46.46
2017-05-23T08:19:59.879Z,45.59
2017-05-23T08:20:59.908Z,45.68
2017-05-23T08:21:59.941Z,45.98
2017-05-23T08:22:59.966Z,45.98
2017-05-23T08:23:59.989Z,45.98
2017-05-23T08:24:59.711Z,45.68
2017-05-23T08:26:00.050Z,45.98
2017-05-23T08:26:59.764Z,45.98
2017-05-23T08:28:00.105Z,45.98
2017-05-23T08:29:00.134Z,45.98
2017-05-23T08:29:59.855Z,46.17
2017-05-23T08:31:00.194Z,45.49
2017-05-23T08:31:59.908Z,45.3
2017-05-23T08:33:00.252Z,45.51
2017-05-23T08:34:00.290Z,45.59
2017-05-23T08:35:00.327Z,45.42
2017-05-23T08:36:00.339Z,45.42
2017-05-23T08:37:00.361Z,45.81
2017-05-23T08:38:00.397Z,45.59
2017-05-23T08:39:00.426Z,45.32
2017-05-23T08:40:00.455Z,45.51
2017-05-23T08:41:00.479Z,45.2
2017-05-23T08:42:00.516Z,45.51
2017-05-23T08:43:00.540Z,45.4
2017-05-23T08:44:00.571Z,45.42
2017-05-23T08:45:00.597Z,45.42
2017-05-23T08:46:00.628Z,45.51
2017-05-23T08:47:00.656Z,45.61
2017-05-23T08:48:00.686Z,45.61
2017-05-23T08:49:00.714Z,45.4
2017-05-23T08:50:00.440Z,45.61
2017-05-23T08:51:00.768Z,45.32
2017-05-23T08:52:00.800Z,45.61
2017-05-23T08:53:00.838Z,45.51
2017-05-23T08:54:00.858Z,45.51
2017-05-23T08:55:00.887Z,45.4
2017-05-23T08:56:00.915Z,45.51
2017-05-23T08:57:00.631Z,45.51
2017-05-23T08:58:00.975Z,45.51
2017-05-23T08:59:00.693Z,45.71
2017-05-23T09:00:01.230Z,45.13
2017-05-23T09:01:01.060Z,45.51
2017-05-23T09:02:01.092Z,45.42
2017-05-23T09:03:01.112Z,45.42
2017-05-23T09:04:01.143Z,45.42
2017-05-23T09:05:01.374Z,45.32
2017-05-23T09:06:01.203Z,45.22
2017-05-23T09:07:01.232Z,45.22
2017-05-23T09:08:01.273Z,44.93
2017-05-23T09:09:01.317Z,45.42
2017-05-23T09:10:01.517Z,45.71
2017-05-23T09:11:01.356Z,45.42
2017-05-23T09:12:01.376Z,45.61
2017-05-23T09:13:01.096Z,45.9
2017-05-23T09:14:01.119Z,45.51
2017-05-23T09:15:01.663Z,45.32
2017-05-23T09:16:01.494Z,45.32
2017-05-23T09:17:01.524Z,45.32
2017-05-23T09:18:01.551Z,45.32
2017-05-23T09:19:01.582Z,44.54
2017-05-23T09:20:01.807Z,45.61
2017-05-23T09:21:01.639Z,45.51
2017-05-23T09:22:01.667Z,45.71
2017-05-23T09:23:01.701Z,45.51
2017-05-23T09:24:01.720Z,45.42
2017-05-23T09:25:01.693Z,45.42
2017-05-23T09:26:01.783Z,45.51
2017-05-23T09:27:01.816Z,45.61
2017-05-23T09:28:01.845Z,45.42
2017-05-23T09:29:01.557Z,45.22
2017-05-23T09:30:02.153Z,45.32
2017-05-23T09:31:01.925Z,45.51
2017-05-23T09:32:01.954Z,45.81
2017-05-23T09:33:02.023Z,45.51
2017-05-23T09:34:01.696Z,45.71
2017-05-23T09:35:02.395Z,45.32
2017-05-23T09:36:01.758Z,45.22
2017-05-23T09:37:01.787Z,45.22
2017-05-23T09:38:01.815Z,45.81
2017-05-23T09:39:02.167Z,45.05
2017-05-23T09:40:02.077Z,45.42
2017-05-23T09:41:01.906Z,45.25
2017-05-23T09:42:02.245Z,44.86
2017-05-23T09:43:02.266Z,44.76
2017-05-23T09:44:02.304Z,45.03
2017-05-23T09:45:02.584Z,44.74
2017-05-23T09:46:02.360Z,44.86
2017-05-23T09:47:02.388Z,44.76
2017-05-23T09:48:02.106Z,45.05
2017-05-23T09:49:02.448Z,44.96
2017-05-23T09:50:02.722Z,45.34
2017-05-23T09:51:02.193Z,45.05
2017-05-23T09:52:02.534Z,44.96
2017-05-23T09:53:02.567Z,44.96
2017-05-23T09:54:02.592Z,45.15
2017-05-23T09:55:02.872Z,45.05
2017-05-23T09:56:02.652Z,44.96
2017-05-23T09:57:02.677Z,44.86
2017-05-23T09:58:02.712Z,45.05
2017-05-23T09:59:02.428Z,44.86
2017-05-23T10:00:03.016Z,44.67
2017-05-23T10:01:02.795Z,44.37
2017-05-23T10:02:02.830Z,44.76
2017-05-23T10:03:02.854Z,44.76
2017-05-23T10:04:02.883Z,44.47
2017-05-23T10:05:03.113Z,44.37
2017-05-23T10:06:02.939Z,44.27
2017-05-23T10:07:02.969Z,44.47
2017-05-23T10:08:03.011Z,44.47
2017-05-23T10:09:03.032Z,44.67
2017-05-23T10:10:02.943Z,44.27
2017-05-23T10:11:03.081Z,44.76
2017-05-23T10:12:03.117Z,44.47
2017-05-23T10:13:03.148Z,44.37
2017-05-23T10:14:02.862Z,44.76
2017-05-23T10:15:03.455Z,44.76
2017-05-23T10:16:03.233Z,44.67
2017-05-23T10:17:03.266Z,44.47
2017-05-23T10:18:03.295Z,44.09
2017-05-23T10:19:03.324Z,44.09
2017-05-23T10:20:03.599Z,43.99
2017-05-23T10:21:03.384Z,44.27
2017-05-23T10:22:03.408Z,44.47
2017-05-23T10:23:03.438Z,44.47
2017-05-23T10:24:03.475Z,44.57
2017-05-23T10:25:03.692Z,43.91
2017-05-23T10:26:03.210Z,44.18
2017-05-23T10:27:03.552Z,44.18
2017-05-23T10:28:03.582Z,44.18
2017-05-23T10:29:03.612Z,43.99
2017-05-23T10:30:03.895Z,44.27
2017-05-23T10:31:03.672Z,44.1
2017-05-23T10:32:03.701Z,44.01
2017-05-23T10:33:03.729Z,44.1
2017-05-23T10:34:03.753Z,44.3
2017-05-23T10:35:04.047Z,44.01
2017-05-23T10:36:03.819Z,44.4
2017-05-23T10:37:03.848Z,44.3
2017-05-23T10:38:03.560Z,44.01
2017-05-23T10:39:03.902Z,43.91
2017-05-23T10:40:03.870Z,44.01
2017-05-23T10:41:03.964Z,43.82
2017-05-23T10:42:03.991Z,43.91
2017-05-23T10:43:04.025Z,44.1
2017-05-23T10:44:04.062Z,43.91
2017-05-23T10:45:04.340Z,43.91
2017-05-23T10:46:04.111Z,43.82
2017-05-23T10:47:04.139Z,43.91
2017-05-23T10:48:04.165Z,44.01
2017-05-23T10:49:04.197Z,44.01
2017-05-23T10:50:04.483Z,43.91
2017-05-23T10:51:04.264Z,44.01
2017-05-23T10:52:04.289Z,43.52
2017-05-23T10:53:04.317Z,44.01
2017-05-23T10:54:04.345Z,44.01
2017-05-23T10:55:04.374Z,43.72
2017-05-23T10:56:04.407Z,43.43
2017-05-23T10:57:04.121Z,43.43
2017-05-23T10:58:04.463Z,43.72
2017-05-23T10:59:04.496Z,43.43
2017-05-23T11:00:04.210Z,43.43
2017-05-23T11:01:04.549Z,43.43
2017-05-23T11:02:04.582Z,43.23
2017-05-23T11:03:04.612Z,43.43
2017-05-23T11:04:04.638Z,43.33
2017-05-23T11:05:04.666Z,43.33
2017-05-23T11:06:04.703Z,43.13
2017-05-23T11:07:04.731Z,42.94
2017-05-23T11:08:04.760Z,42.94
2017-05-23T11:09:04.788Z,42.94
2017-05-23T11:10:04.817Z,43.84
2017-05-23T11:11:04.843Z,43.16
2017-05-23T11:12:04.880Z,43.06
2017-05-23T11:13:04.596Z,43.26
2017-05-23T11:14:04.937Z,42.86
2017-05-23T11:15:04.966Z,43.35
2017-05-23T11:16:05.060Z,43.16
2017-05-23T11:17:05.027Z,43.45
2017-05-23T11:18:05.057Z,43.26
2017-05-23T11:19:05.089Z,43.16
2017-05-23T11:20:05.109Z,43.16
2017-05-23T11:21:04.835Z,43.45
2017-05-23T11:22:05.176Z,43.45
2017-05-23T11:23:05.204Z,43.54
2017-05-23T11:24:05.237Z,43.45
2017-05-23T11:25:05.266Z,43.54
2017-05-23T11:26:05.298Z,43.45
2017-05-23T11:27:05.318Z,43.54
2017-05-23T11:28:05.355Z,43.26
2017-05-23T11:29:05.381Z,43.16
2017-05-23T11:30:05.098Z,42.67
2017-05-23T11:31:05.131Z,42.96
2017-05-23T11:32:05.476Z,42.77
2017-05-23T11:33:05.193Z,42.96
2017-05-23T11:34:05.524Z,43.06
2017-05-23T11:35:05.565Z,42.77
2017-05-23T11:36:05.594Z,42.57
2017-05-23T11:37:05.315Z,42.57
2017-05-23T11:38:05.651Z,42.29
2017-05-23T11:39:05.686Z,42.69
2017-05-23T11:40:05.714Z,42.69
2017-05-23T11:41:05.742Z,42.69
2017-05-23T11:42:05.462Z,42.5
2017-05-23T11:43:05.805Z,42.5
2017-05-23T11:44:05.832Z,42.6
2017-05-23T11:45:05.864Z,42.5
2017-05-23T11:46:05.906Z,42.3
2017-05-23T11:47:05.610Z,42.6
2017-05-23T11:48:05.955Z,42.79
2017-05-23T11:49:05.981Z,42.02
2017-05-23T11:50:06.017Z,42.4
2017-05-23T11:51:06.049Z,42.33
2017-05-23T11:52:06.074Z,41.84
2017-05-23T11:53:06.103Z,42.03
2017-05-23T11:54:06.151Z,41.55
2017-05-23T11:55:06.168Z,41.45
2017-05-23T11:56:06.449Z,41.64
2017-05-23T11:57:06.231Z,41.74
2017-05-23T11:58:05.947Z,41.45
2017-05-23T11:59:06.283Z,41.18
2017-05-23T12:00:06.321Z,41.28
2017-05-23T12:01:06.853Z,40.79
2017-05-23T12:02:06.383Z,40.89
2017-05-23T12:03:06.411Z,40.21
2017-05-23T12:04:06.445Z,39.94
2017-05-23T12:05:06.166Z,40.23
2017-05-23T12:06:06.757Z,40.33
2017-05-23T12:07:06.221Z,40.33
2017-05-23T12:08:06.566Z,40.33
2017-05-23T12:09:06.284Z,40.42
2017-05-23T12:10:06.632Z,40.03
2017-05-23T12:11:06.649Z,39.94
2017-05-23T12:12:06.386Z,40.52
2017-05-23T12:13:06.406Z,40.33
2017-05-23T12:14:06.753Z,40.23
2017-05-23T12:15:06.793Z,39.94
2017-05-23T12:16:07.073Z,40.03
2017-05-23T12:17:06.905Z,40.41
2017-05-23T12:18:06.558Z,40.31
2017-05-23T12:19:06.907Z,40.31
2017-05-23T12:20:06.630Z,40.41
2017-05-23T12:21:07.171Z,39.94
2017-05-23T12:22:07.004Z,40.23
2017-05-23T12:23:07.030Z,40.23
2017-05-23T12:24:07.063Z,39.75
2017-05-23T12:25:07.096Z,39.65
2017-05-23T12:26:07.377Z,39.45
2017-05-23T12:27:07.162Z,39.57
2017-05-23T12:28:07.190Z,38.89
2017-05-23T12:29:06.907Z,38.71
2017-05-23T12:30:07.252Z,38.13
2017-05-23T12:31:07.536Z,37.84
2017-05-23T12:32:07.313Z,37.95
2017-05-23T12:33:07.350Z,37.37
2017-05-23T12:34:07.383Z,37.68
2017-05-23T12:35:07.104Z,37
2017-05-23T12:36:07.449Z,36.71
2017-05-23T12:37:07.171Z,36.63
2017-05-23T12:38:07.514Z,36.14
2017-05-23T12:39:07.547Z,36.16
2017-05-23T12:40:07.576Z,35.96
2017-05-23T12:41:07.612Z,36.24
2017-05-23T12:42:07.332Z,35.86
2017-05-23T12:43:07.673Z,36.35
2017-05-23T12:44:07.766Z,36.35
2017-05-23T12:45:07.740Z,36.35
2017-05-23T12:46:07.772Z,35.38
2017-05-23T12:47:07.804Z,35.86
2017-05-23T12:48:07.521Z,35.28
2017-05-23T12:49:07.871Z,35.39
2017-05-23T12:50:07.903Z,35.2
2017-05-23T12:51:07.629Z,35.1
2017-05-23T12:52:07.978Z,35.2
2017-05-23T12:53:08.007Z,35.39
2017-05-23T12:54:08.030Z,35.49
2017-05-23T12:55:08.068Z,35.08
2017-05-23T12:56:08.104Z,35.2